Time;durP1;ratioP1;P1;durP2;ratioP2;P2;SDS_P1;SDS_P2;PMS_P1;PMS_P2;Temp;Humidity;BMP_temperature;BMP_pressure;BME280_temperature;BME280_humidity;BME280_pressure;Samples;Min_cycle;Max_cycle;Signal;HPM_P1;HPM_P2
2021/10/16 00:00:55;;;;;;;8.90;5.47;;;;;;;9.57;57.61;99529.75;5032286;28;20132;-59
2021/10/16 00:03:21;;;;;;;8.63;5.15;;;;;;;9.60;57.68;99534.00;5032680;28;20067;-59
2021/10/16 00:05:47;;;;;;;10.75;6.32;;;;;;;9.61;57.37;99528.50;5033136;28;20525;-60
2021/10/16 00:08:12;;;;;;;8.52;6.05;;;;;;;9.42;57.41;99494.44;5030815;28;20059;-59
2021/10/16 00:10:38;;;;;;;7.93;5.18;;;;;;;9.63;57.43;99531.91;5032269;28;20037;-61
2021/10/16 00:13:04;;;;;;;10.57;6.00;;;;;;;9.65;57.44;99522.94;5032832;28;20531;-57
2021/10/16 00:15:30;;;;;;;9.52;5.80;;;;;;;9.62;58.12;99527.53;5032594;28;20041;-58
2021/10/16 00:17:57;;;;;;;10.82;5.40;;;;;;;9.63;57.75;99512.38;5033893;28;20033;-61
2021/10/16 00:20:22;;;;;;;8.15;5.47;;;;;;;9.66;57.99;99516.63;5032889;28;20033;-60
2021/10/16 00:22:48;;;;;;;10.60;5.40;;;;;;;9.66;57.68;99516.63;5032649;28;20446;-58
2021/10/16 00:25:13;;;;;;;8.75;5.15;;;;;;;9.68;57.80;99525.34;5031879;28;20400;-59
2021/10/16 00:27:39;;;;;;;7.25;5.22;;;;;;;9.68;57.89;99517.34;5040268;28;20033;-58
2021/10/16 00:30:05;;;;;;;7.72;5.45;;;;;;;9.69;57.66;99519.88;5035295;28;20030;-56
2021/10/16 00:32:30;;;;;;;8.63;5.45;;;;;;;9.72;57.82;99516.94;5039822;28;20116;-59
2021/10/16 00:34:56;;;;;;;8.63;5.93;;;;;;;9.72;57.35;99508.09;5035525;28;20087;-57
2021/10/16 00:37:24;;;;;;;7.82;5.65;;;;;;;9.73;57.42;99520.47;5030820;28;20021;-56
2021/10/16 00:39:51;;;;;;;8.40;5.03;;;;;;;9.73;57.78;99518.63;5031082;28;20398;-58
2021/10/16 00:42:17;;;;;;;8.95;5.78;;;;;;;9.73;57.34;99512.47;5033502;28;20099;-58
2021/10/16 00:44:42;;;;;;;9.75;5.70;;;;;;;9.73;57.25;99507.94;5031553;28;20029;-59
2021/10/16 00:47:08;;;;;;;10.50;5.35;;;;;;;9.73;57.68;99512.47;5031886;28;20021;-55
2021/10/16 00:49:33;;;;;;;8.63;5.93;;;;;;;9.74;57.08;99506.97;5031940;28;20428;-57
2021/10/16 00:52:00;;;;;;;6.63;5.35;;;;;;;9.75;57.26;99511.34;5031799;28;20472;-58
2021/10/16 00:54:26;;;;;;;8.45;5.70;;;;;;;9.76;57.37;99507.69;5031356;28;20116;-60
2021/10/16 00:56:54;;;;;;;10.18;5.32;;;;;;;9.74;57.50;99506.13;5032011;28;20124;-58
2021/10/16 00:59:20;;;;;;;7.70;5.40;;;;;;;9.69;57.62;99505.66;5042283;28;20029;-58
2021/10/16 01:01:46;;;;;;;10.75;5.50;;;;;;;9.74;57.40;99504.28;5032598;28;20029;-56
2021/10/16 01:04:11;;;;;;;10.05;5.38;;;;;;;9.76;57.04;99512.19;5031478;28;20025;-53
2021/10/16 01:06:38;;;;;;;9.65;5.63;;;;;;;9.75;57.55;99521.19;5031248;28;20120;-56
2021/10/16 01:09:08;;;;;;;8.93;5.97;;;;;;;9.76;57.42;99517.53;5030348;28;20068;-61
2021/10/16 01:11:37;;;;;;;7.82;5.05;;;;;;;9.78;57.34;99510.25;5031107;28;20076;-61
2021/10/16 01:14:10;;;;;;;9.35;5.60;;;;;;;9.78;57.38;99507.56;5034842;28;20048;-61
2021/10/16 01:16:36;;;;;;;8.93;5.22;;;;;;;9.75;57.52;99506.00;5043137;28;20041;-58
2021/10/16 01:19:10;;;;;;;8.05;5.38;;;;;;;9.75;57.19;99502.47;5051360;28;20116;-59
2021/10/16 01:21:39;;;;;;;11.40;6.13;;;;;;;9.57;57.14;99462.91;5051405;28;20043;-58
2021/10/16 01:24:05;;;;;;;10.20;5.13;;;;;;;9.76;56.75;99490.81;5050724;28;20115;-59
2021/10/16 01:26:31;;;;;;;9.32;5.22;;;;;;;9.66;57.42;99480.03;5050985;28;20078;-60
2021/10/16 01:28:57;;;;;;;11.73;5.43;;;;;;;9.68;57.63;99490.59;5048633;28;20029;-59
2021/10/16 01:31:24;;;;;;;8.93;5.53;;;;;;;9.70;57.36;99484.13;5047245;28;20041;-59
2021/10/16 01:33:50;;;;;;;8.57;5.32;;;;;;;9.68;57.47;99482.59;5048934;28;20103;-60
2021/10/16 01:36:15;;;;;;;9.25;5.53;;;;;;;9.71;57.55;99493.84;5039474;28;20442;-58
2021/10/16 01:38:41;;;;;;;8.80;6.25;;;;;;;9.69;57.31;99486.97;5049800;28;20107;-60
2021/10/16 01:41:06;;;;;;;8.00;5.57;;;;;;;9.69;57.34;99497.66;5044321;28;20080;-58
2021/10/16 01:43:32;;;;;;;6.97;5.32;;;;;;;9.67;57.55;99492.41;5029230;28;20032;-58
2021/10/16 01:45:58;;;;;;;11.73;5.45;;;;;;;9.67;57.25;99478.22;5034079;28;20032;-59
2021/10/16 01:48:25;;;;;;;7.90;5.53;;;;;;;9.72;57.32;99492.03;5031258;28;20116;-59
2021/10/16 01:50:52;;;;;;;8.77;5.80;;;;;;;9.72;57.21;99490.22;5030208;28;20041;-59
2021/10/16 01:53:18;;;;;;;8.70;6.05;;;;;;;9.73;57.10;99488.41;5030353;28;20029;-56
2021/10/16 01:55:44;;;;;;;7.30;5.68;;;;;;;9.73;57.58;99483.06;5030362;28;20037;-60
2021/10/16 01:58:13;;;;;;;9.43;6.35;;;;;;;9.78;57.02;99483.50;5037717;28;20033;-58
2021/10/16 02:00:39;;;;;;;10.05;5.95;;;;;;;9.79;56.96;99479.84;5039164;28;20029;-57
2021/10/16 02:03:09;;;;;;;7.28;5.50;;;;;;;9.81;57.11;99485.94;5032354;28;20033;-59
2021/10/16 02:05:35;;;;;;;10.65;5.80;;;;;;;9.56;57.17;99439.84;5029773;28;20037;-61
2021/10/16 02:08:01;;;;;;;14.23;5.60;;;;;;;9.72;57.03;99474.16;5030917;28;20041;-59
2021/10/16 02:10:27;;;;;;;8.07;5.07;;;;;;;9.77;57.01;99476.47;5030162;28;20037;-60
2021/10/16 02:12:52;;;;;;;10.45;5.82;;;;;;;9.80;57.32;99470.84;5028815;28;20175;-56
2021/10/16 02:15:18;;;;;;;9.60;5.85;;;;;;;9.83;57.17;99467.94;5030302;28;20041;-57
2021/10/16 02:17:44;;;;;;;8.27;5.85;;;;;;;9.84;57.28;99455.44;5033021;28;20485;-62
2021/10/16 02:20:10;;;;;;;11.63;5.90;;;;;;;9.83;56.86;99449.22;5029865;28;20037;-59
2021/10/16 02:22:35;;;;;;;8.10;5.75;;;;;;;9.83;56.91;99453.72;5030306;28;20345;-58
2021/10/16 02:25:01;;;;;;;8.18;5.22;;;;;;;9.79;57.03;99445.09;5030508;28;20107;-59
2021/10/16 02:27:26;;;;;;;6.88;5.75;;;;;;;9.81;56.92;99445.00;5030121;28;20030;-62
2021/10/16 02:29:52;;;;;;;8.23;5.90;;;;;;;9.84;57.05;99450.91;5030577;28;20044;-61
2021/10/16 02:32:17;;;;;;;8.63;6.30;;;;;;;9.80;57.20;99452.16;5036621;28;20031;-62
2021/10/16 02:34:43;;;;;;;9.73;5.93;;;;;;;9.81;57.02;99451.16;5029224;28;20034;-59
2021/10/16 02:37:08;;;;;;;8.73;5.78;;;;;;;9.77;57.01;99447.06;5030177;28;20032;-61
2021/10/16 02:39:34;;;;;;;11.43;5.90;;;;;;;9.79;57.38;99449.63;5029752;28;20466;-61
2021/10/16 02:41:59;;;;;;;8.73;5.40;;;;;;;9.81;57.03;99448.50;5030159;28;20064;-58
2021/10/16 02:44:28;;;;;;;7.75;5.55;;;;;;;9.86;57.16;99443.59;5030974;28;20037;-58
2021/10/16 02:46:54;;;;;;;8.57;6.20;;;;;;;9.82;57.01;99444.00;5032806;28;20125;-59
2021/10/16 02:49:19;;;;;;;8.02;5.78;;;;;;;9.87;57.16;99437.28;5040350;28;20037;-58
2021/10/16 02:51:46;;;;;;;10.13;6.63;;;;;;;9.87;57.05;99442.63;5053197;28;20037;-57
2021/10/16 02:54:11;;;;;;;9.13;6.13;;;;;;;9.86;57.24;99450.78;5054453;28;20029;-58
2021/10/16 02:56:37;;;;;;;8.98;5.80;;;;;;;9.87;56.69;99433.78;5053970;28;20021;-58
2021/10/16 02:59:02;;;;;;;13.43;6.25;;;;;;;9.90;56.86;99441.53;5053486;28;20033;-58
2021/10/16 03:01:28;;;;;;;8.18;6.07;;;;;;;9.89;57.16;99438.03;5040138;28;20032;-53
2021/10/16 03:03:53;;;;;;;13.00;6.05;;;;;;;9.91;56.85;99438.75;5035504;28;20109;-58
2021/10/16 03:06:19;;;;;;;7.25;5.53;;;;;;;9.96;57.08;99432.16;5053362;28;20040;-59
2021/10/16 03:08:44;;;;;;;8.07;6.32;;;;;;;9.95;56.87;99425.09;5033070;28;20104;-58
2021/10/16 03:11:10;;;;;;;8.00;5.75;;;;;;;9.94;57.26;99447.47;5036349;28;20050;-59
2021/10/16 03:13:35;;;;;;;7.50;5.70;;;;;;;9.96;56.86;99437.50;5040681;28;20034;-60
2021/10/16 03:16:01;;;;;;;13.45;5.72;;;;;;;9.94;56.71;99439.47;5033616;28;20481;-59
2021/10/16 03:18:27;;;;;;;8.73;6.05;;;;;;;9.78;56.81;99397.97;5032940;28;20104;-60
2021/10/16 03:20:53;;;;;;;7.47;5.57;;;;;;;9.99;56.51;99437.25;5035797;28;20034;-60
2021/10/16 03:23:18;;;;;;;8.68;5.95;;;;;;;10.09;56.85;99430.13;5039493;28;20029;-57
2021/10/16 03:25:44;;;;;;;8.40;6.40;;;;;;;10.07;56.21;99434.75;5033123;28;20036;-58
2021/10/16 03:28:09;;;;;;;8.23;6.13;;;;;;;10.11;56.18;99436.19;5031465;28;20029;-60
2021/10/16 03:30:35;;;;;;;7.15;5.90;;;;;;;10.15;56.19;99426.94;5033001;28;20481;-60
2021/10/16 03:33:00;;;;;;;9.23;6.10;;;;;;;10.15;56.23;99442.13;5032364;28;20450;-61
2021/10/16 03:35:25;;;;;;;8.48;5.80;;;;;;;10.12;56.27;99429.00;5032903;28;20116;-61
2021/10/16 03:37:51;;;;;;;8.38;6.05;;;;;;;10.09;56.62;99431.97;5038011;28;20117;-61
2021/10/16 03:40:16;;;;;;;9.10;6.18;;;;;;;10.12;56.61;99445.91;5052197;28;20036;-62
2021/10/16 03:42:42;;;;;;;9.80;6.00;;;;;;;10.12;56.59;99443.22;5048076;28;20082;-58
2021/10/16 03:45:07;;;;;;;11.57;6.00;;;;;;;10.10;56.28;99436.31;5032604;28;20026;-59
2021/10/16 03:47:35;;;;;;;8.02;6.30;;;;;;;10.13;56.26;99446.75;5032730;28;20029;-60
2021/10/16 03:50:01;;;;;;;9.00;6.20;;;;;;;10.10;56.55;99442.50;5032641;28;20492;-60
2021/10/16 03:52:26;;;;;;;7.93;6.15;;;;;;;10.19;56.57;99444.41;5036032;28;20036;-61
2021/10/16 03:54:52;;;;;;;13.13;6.25;;;;;;;10.18;56.16;99433.84;5031871;28;20315;-60
2021/10/16 03:57:17;;;;;;;9.35;6.47;;;;;;;10.14;56.51;99446.66;5031573;28;20029;-60
2021/10/16 03:59:43;;;;;;;10.25;6.60;;;;;;;10.23;56.30;99438.81;5031851;28;20116;-62
2021/10/16 04:02:10;;;;;;;7.45;5.97;;;;;;;10.19;56.38;99454.25;5031611;28;20065;-60
2021/10/16 04:04:36;;;;;;;11.02;6.38;;;;;;;10.19;56.30;99440.88;5033139;28;20037;-58
2021/10/16 04:07:02;;;;;;;9.73;5.85;;;;;;;10.17;56.34;99449.06;5034654;28;20036;-61
2021/10/16 04:09:27;;;;;;;10.88;6.13;;;;;;;10.10;56.30;99436.31;5033218;28;20033;-60
2021/10/16 04:11:53;;;;;;;9.60;6.35;;;;;;;10.16;56.28;99450.03;5033000;28;20061;-60
2021/10/16 04:14:19;;;;;;;10.20;6.43;;;;;;;10.16;56.27;99447.34;5032568;28;20120;-54
2021/10/16 04:16:44;;;;;;;9.95;6.43;;;;;;;10.12;56.18;99440.56;5030732;28;20538;-56
2021/10/16 04:19:10;;;;;;;11.23;6.30;;;;;;;10.11;56.40;99425.47;5032029;28;20040;-61
2021/10/16 04:21:36;;;;;;;7.95;6.18;;;;;;;10.09;56.49;99435.47;5038264;28;20021;-61
2021/10/16 04:24:01;;;;;;;8.02;5.90;;;;;;;10.12;56.43;99439.72;5038433;28;20053;-60
2021/10/16 04:26:28;;;;;;;9.82;6.50;;;;;;;10.08;56.06;99430.25;5031631;28;20038;-60
2021/10/16 04:28:53;;;;;;;9.18;6.00;;;;;;;10.12;56.32;99442.41;5032631;28;20033;-60
2021/10/16 04:31:18;;;;;;;9.82;6.32;;;;;;;10.12;56.17;99443.22;5033502;28;20034;-60
2021/10/16 04:33:44;;;;;;;9.27;6.30;;;;;;;10.15;56.07;99448.34;5051246;28;20069;-61
2021/10/16 04:36:09;;;;;;;9.73;6.25;;;;;;;9.98;55.90;99403.44;5051911;28;20376;-59
2021/10/16 04:38:35;;;;;;;8.77;6.50;;;;;;;10.13;55.68;99428.03;5035328;28;20379;-59
2021/10/16 04:41:01;;;;;;;11.88;6.00;;;;;;;10.03;55.31;99407.44;5032273;28;20389;-60
2021/10/16 04:43:28;;;;;;;8.35;6.38;;;;;;;10.23;55.47;99439.63;5030280;28;20036;-60
2021/10/16 04:45:53;;;;;;;7.97;5.70;;;;;;;10.16;55.62;99422.41;5031918;28;20052;-60
2021/10/16 04:48:19;;;;;;;7.65;5.70;;;;;;;10.28;55.37;99425.88;5035312;28;20421;-61
2021/10/16 04:50:45;;;;;;;7.97;6.30;;;;;;;10.29;55.16;99438.28;5039570;28;20489;-60
2021/10/16 04:53:11;;;;;;;10.68;6.38;;;;;;;10.32;54.89;99416.59;5031295;28;20033;-61
2021/10/16 04:55:36;;;;;;;8.73;6.20;;;;;;;10.33;54.86;99426.31;5031368;28;20112;-60
2021/10/16 04:58:02;;;;;;;9.57;5.70;;;;;;;10.35;54.83;99429.72;5031814;28;20381;-61
2021/10/16 05:00:27;;;;;;;11.27;6.05;;;;;;;10.43;54.54;99419.25;5031691;28;20033;-57
2021/10/16 05:02:52;;;;;;;11.38;6.40;;;;;;;10.44;54.65;99417.41;5035227;28;20029;-60
2021/10/16 05:05:18;;;;;;;10.40;6.80;;;;;;;10.44;54.63;99404.88;5030692;28;20539;-59
2021/10/16 05:07:43;;;;;;;10.65;6.35;;;;;;;10.50;54.53;99408.00;5031696;28;20385;-60
2021/10/16 05:10:09;;;;;;;8.73;6.10;;;;;;;10.51;54.35;99401.66;5031837;28;20060;-61
2021/10/16 05:12:35;;;;;;;9.95;5.95;;;;;;;10.55;53.92;99403.06;5032345;28;20701;-61
2021/10/16 05:15:00;;;;;;;11.88;6.47;;;;;;;10.53;53.93;99407.72;5030027;28;20044;-59
2021/10/16 05:17:26;;;;;;;9.18;5.65;;;;;;;10.45;54.27;99403.91;5032943;28;20119;-61
2021/10/16 05:19:52;;;;;;;14.95;6.13;;;;;;;10.52;54.25;99412.25;5034025;28;20473;-62
2021/10/16 05:22:17;;;;;;;8.02;6.05;;;;;;;10.54;54.11;99412.09;5030722;28;20025;-60
2021/10/16 05:24:42;;;;;;;10.32;5.78;;;;;;;10.37;54.07;99366.22;5031005;28;20033;-62
2021/10/16 05:27:08;;;;;;;12.85;5.45;;;;;;;10.63;53.90;99403.28;5031062;28;20053;-63
2021/10/16 05:29:33;;;;;;;10.05;5.63;;;;;;;10.65;53.83;99403.97;5030924;28;20041;-62
2021/10/16 05:31:59;;;;;;;9.10;5.93;;;;;;;10.73;53.74;99406.81;5031219;28;20228;-61
2021/10/16 05:34:25;;;;;;;10.63;5.80;;;;;;;10.82;53.44;99405.16;5038533;28;20052;-61
2021/10/16 05:36:51;;;;;;;8.55;6.45;;;;;;;10.86;53.29;99411.09;5034632;28;20029;-57
2021/10/16 05:39:17;;;;;;;7.80;5.80;;;;;;;10.94;53.22;99400.56;5034150;28;20487;-61
2021/10/16 05:41:42;;;;;;;9.27;6.53;;;;;;;10.95;52.97;99383.50;5049712;28;20021;-61
2021/10/16 05:44:08;;;;;;;10.57;5.47;;;;;;;10.93;52.50;99380.09;5050930;28;20028;-60
2021/10/16 05:46:36;;;;;;;9.60;5.85;;;;;;;10.94;52.29;99368.41;5050495;28;20025;-61
2021/10/16 05:49:03;;;;;;;8.75;5.95;;;;;;;11.16;52.35;99399.47;5047484;28;20409;-62
2021/10/16 05:51:28;;;;;;;7.03;6.00;;;;;;;11.19;51.96;99387.63;5049181;28;20411;-59
2021/10/16 05:53:54;;;;;;;9.35;5.88;;;;;;;11.28;52.10;99386.78;5050369;28;20110;-60
2021/10/16 05:56:19;;;;;;;9.68;5.45;;;;;;;11.37;51.88;99385.09;5049844;28;20416;-60
2021/10/16 05:58:45;;;;;;;9.40;5.93;;;;;;;11.45;51.42;99373.69;5050528;28;20036;-62
2021/10/16 06:01:10;;;;;;;10.43;5.65;;;;;;;11.47;51.50;99385.13;5050192;28;20031;-60
2021/10/16 06:03:36;;;;;;;13.50;5.80;;;;;;;11.29;51.23;99344.78;5050321;28;20025;-61
2021/10/16 06:06:01;;;;;;;9.82;5.40;;;;;;;11.50;51.64;99363.38;5039052;28;20121;-61
2021/10/16 06:08:27;;;;;;;11.88;6.25;;;;;;;11.49;51.40;99370.59;5048873;28;20024;-60
2021/10/16 06:10:52;;;;;;;9.73;5.53;;;;;;;11.48;51.36;99366.22;5048684;28;20032;-62
2021/10/16 06:13:18;;;;;;;9.63;6.30;;;;;;;11.46;51.26;99361.97;5049839;28;20060;-60
2021/10/16 06:15:43;;;;;;;12.75;6.50;;;;;;;11.46;51.66;99372.69;5050203;28;20037;-61
2021/10/16 06:18:12;;;;;;;14.57;6.07;;;;;;;11.46;51.23;99367.34;5050170;28;20068;-61
2021/10/16 06:20:38;;;;;;;9.88;6.47;;;;;;;11.45;51.17;99366.50;5044590;28;20029;-61
2021/10/16 06:23:03;;;;;;;8.07;5.85;;;;;;;11.47;51.12;99358.31;5049756;28;20032;-58
2021/10/16 06:25:29;;;;;;;9.52;5.88;;;;;;;11.50;51.08;99368.75;5052278;28;20039;-61
2021/10/16 06:27:54;;;;;;;7.85;5.28;;;;;;;11.50;50.98;99363.38;5052662;28;20029;-60
2021/10/16 06:30:20;;;;;;;13.55;6.13;;;;;;;11.58;50.88;99360.00;5053782;28;20033;-61
2021/10/16 06:32:45;;;;;;;9.77;6.05;;;;;;;11.58;50.67;99357.31;5053560;28;20040;-62
2021/10/16 06:35:11;;;;;;;10.23;6.38;;;;;;;11.55;50.85;99366.47;5054167;28;20048;-60
2021/10/16 06:37:36;;;;;;;8.75;6.40;;;;;;;11.59;50.85;99357.19;5048859;28;20571;-63
2021/10/16 06:40:02;;;;;;;10.00;5.80;;;;;;;11.61;50.40;99354.34;5053684;28;20500;-60
2021/10/16 06:42:29;;;;;;;14.68;6.38;;;;;;;11.65;50.46;99362.97;5053803;28;20025;-61
2021/10/16 06:44:54;;;;;;;9.23;5.93;;;;;;;11.24;50.49;99298.78;5054896;28;20040;-63
2021/10/16 06:47:20;;;;;;;9.95;6.05;;;;;;;11.54;50.61;99347.88;5053986;28;20402;-61
2021/10/16 06:49:45;;;;;;;12.07;5.93;;;;;;;11.59;50.67;99338.41;5053744;28;20469;-62
2021/10/16 06:52:10;;;;;;;8.18;6.03;;;;;;;11.57;50.38;99347.59;5050661;28;20378;-61
2021/10/16 06:54:36;;;;;;;12.48;6.07;;;;;;;11.59;50.15;99354.50;5043953;28;20064;-61
2021/10/16 06:57:01;;;;;;;12.35;6.30;;;;;;;11.55;50.26;99361.13;5053691;28;20033;-61
2021/10/16 06:59:27;;;;;;;8.73;5.88;;;;;;;11.31;50.26;99327.53;5053799;28;20041;-61
2021/10/16 07:01:52;;;;;;;11.13;6.20;;;;;;;11.28;50.40;99335.03;5053450;28;20098;-62
2021/10/16 07:04:18;;;;;;;12.55;6.25;;;;;;;11.47;50.14;99374.38;5053851;28;20124;-61
2021/10/16 07:06:43;;;;;;;11.38;6.05;;;;;;;11.37;50.59;99365.50;5053975;28;20025;-62
2021/10/16 07:09:08;;;;;;;10.90;6.28;;;;;;;11.36;50.43;99353.09;5048482;28;20503;-63
2021/10/16 07:11:34;;;;;;;10.38;5.97;;;;;;;11.36;50.59;99350.41;5053120;28;20129;-63
2021/10/16 07:14:00;;;;;;;12.60;5.75;;;;;;;11.42;50.49;99345.31;5045190;28;20045;-62
2021/10/16 07:16:25;;;;;;;11.35;6.13;;;;;;;11.48;50.04;99354.63;5048703;28;20037;-62
2021/10/16 07:18:51;;;;;;;7.97;5.40;;;;;;;11.57;50.11;99348.41;5050927;28;20040;-62
2021/10/16 07:21:16;;;;;;;8.93;5.97;;;;;;;11.57;49.51;99336.84;5051519;28;20648;-62
2021/10/16 07:23:45;;;;;;;9.25;5.53;;;;;;;11.66;49.75;99340.53;5048320;28;20499;-62
2021/10/16 07:26:10;;;;;;;12.07;5.70;;;;;;;11.72;49.42;99335.44;5051486;28;20040;-63
2021/10/16 07:28:36;;;;;;;9.57;6.03;;;;;;;11.74;49.60;99335.28;5052620;28;20637;-62
2021/10/16 07:31:01;;;;;;;9.43;6.00;;;;;;;11.75;49.30;99328.91;5052119;28;20083;-63
2021/10/16 07:33:27;;;;;;;10.82;6.05;;;;;;;11.83;48.98;99329.06;5052935;28;20082;-61
2021/10/16 07:35:52;;;;;;;8.43;5.13;;;;;;;11.58;49.20;99296.50;5052715;28;20531;-61
2021/10/16 07:38:17;;;;;;;11.40;5.88;;;;;;;11.87;48.77;99327.78;5049971;28;20036;-61
2021/10/16 07:40:43;;;;;;;11.43;5.88;;;;;;;11.94;48.53;99343.28;5035560;28;20430;-63
2021/10/16 07:43:08;;;;;;;13.25;5.70;;;;;;;11.92;48.52;99335.38;5032534;28;20444;-65
2021/10/16 07:45:34;;;;;;;11.40;5.50;;;;;;;11.70;48.49;99283.78;5032693;28;20034;-62
2021/10/16 07:48:00;;;;;;;9.85;5.93;;;;;;;11.99;48.37;99332.97;5033056;28;20026;-62
2021/10/16 07:50:25;;;;;;;11.13;5.55;;;;;;;12.03;48.23;99332.56;5033086;28;20462;-62
2021/10/16 07:52:51;;;;;;;12.10;5.85;;;;;;;12.13;48.38;99329.00;5031361;28;20477;-61
2021/10/16 07:55:16;;;;;;;15.00;6.30;;;;;;;12.16;47.79;99332.25;5042323;28;20276;-61
2021/10/16 07:57:42;;;;;;;12.00;5.80;;;;;;;12.23;47.92;99328.97;5050879;28;20133;-62
2021/10/16 08:00:08;;;;;;;8.27;5.82;;;;;;;12.32;47.53;99331.63;5052098;28;20469;-63
2021/10/16 08:02:35;;;;;;;7.30;5.25;;;;;;;12.30;47.48;99328.25;5052581;28;20035;-61
2021/10/16 08:05:02;;;;;;;11.55;6.03;;;;;;;12.34;46.89;99323.44;5050807;28;20384;-62
2021/10/16 08:07:29;;;;;;;11.30;5.90;;;;;;;12.31;47.12;99319.19;5052113;28;20048;-62
2021/10/16 08:09:54;;;;;;;10.27;6.05;;;;;;;12.41;47.06;99318.28;5047383;28;20025;-60
2021/10/16 08:12:20;;;;;;;10.40;5.53;;;;;;;12.47;46.71;99306.97;5032568;28;20042;-61
2021/10/16 08:14:45;;;;;;;11.15;5.68;;;;;;;12.71;46.11;99319.00;5035810;28;20437;-61
2021/10/16 08:17:11;;;;;;;13.52;5.75;;;;;;;12.94;45.24;99323.97;5049731;28;20484;-62
2021/10/16 08:19:36;;;;;;;8.35;5.55;;;;;;;13.02;44.90;99324.91;5051923;28;20481;-59
2021/10/16 08:22:02;;;;;;;8.68;5.32;;;;;;;13.11;44.75;99333.88;5052529;28;20106;-58
2021/10/16 08:24:28;;;;;;;12.48;5.05;;;;;;;13.12;44.49;99323.97;5050114;28;20040;-62
2021/10/16 08:26:53;;;;;;;17.15;5.90;;;;;;;13.06;44.72;99317.34;5048441;28;20040;-60
2021/10/16 08:29:19;;;;;;;11.32;6.35;;;;;;;13.09;44.09;99318.91;5052089;28;20033;-64
2021/10/16 08:31:44;;;;;;;14.40;5.45;;;;;;;13.09;44.21;99332.34;5051134;28;20094;-62
2021/10/16 08:34:10;;;;;;;10.82;5.72;;;;;;;12.92;43.75;99295.41;5050338;28;20037;-63
2021/10/16 08:36:35;;;;;;;11.70;5.05;;;;;;;13.12;43.42;99332.88;5050452;28;20029;-62
2021/10/16 08:39:01;;;;;;;10.15;5.78;;;;;;;12.86;43.44;99301.38;5052191;28;20041;-62
2021/10/16 08:41:27;;;;;;;10.88;5.53;;;;;;;13.13;43.08;99353.38;5026375;28;20075;-62
2021/10/16 08:43:52;;;;;;;11.10;5.50;;;;;;;13.05;43.29;99331.78;5051546;28;20384;-64
2021/10/16 08:46:18;;;;;;;12.63;5.45;;;;;;;12.95;43.00;99337.22;5050772;28;20112;-62
2021/10/16 08:48:43;;;;;;;17.73;6.10;;;;;;;12.99;42.95;99340.47;5049500;28;20117;-61
2021/10/16 08:51:10;;;;;;;7.55;5.32;;;;;;;12.98;42.80;99342.28;5050326;28;20146;-55
2021/10/16 08:53:35;;;;;;;7.97;5.53;;;;;;;13.04;42.29;99349.78;5049970;28;20488;-54
2021/10/16 08:56:04;;;;;;;11.38;5.20;;;;;;;13.00;42.41;99340.31;5044964;28;20025;-59
2021/10/16 08:58:32;;;;;;;9.05;5.50;;;;;;;12.96;42.09;99355.03;5049240;28;20461;-60
2021/10/16 09:00:59;;;;;;;9.02;5.13;;;;;;;12.92;42.66;99353.66;5051014;28;20067;-58
2021/10/16 09:03:25;;;;;;;10.18;5.53;;;;;;;12.85;42.38;99337.28;5050577;28;20078;-53
2021/10/16 09:06:18;;;;;;;9.07;5.55;;;;;;;13.01;43.01;99335.78;5049666;28;20070;-55
2021/10/16 09:08:46;;;;;;;10.52;5.20;;;;;;;12.89;42.50;99335.16;5049225;28;20045;-54
2021/10/16 09:11:18;;;;;;;8.85;5.47;;;;;;;12.85;42.63;99341.84;5046236;28;20393;-60
2021/10/16 09:13:55;;;;;;;16.17;5.10;;;;;;;12.88;42.61;99330.78;5029872;28;20073;-56
2021/10/16 09:16:24;;;;;;;10.98;5.25;;;;;;;12.86;42.57;99328.22;5029949;28;20044;-54
2021/10/16 09:19:05;;;;;;;8.52;5.55;;;;;;;12.91;42.22;99331.34;5030011;28;20148;-59
2021/10/16 09:21:32;;;;;;;9.75;5.63;;;;;;;12.92;41.89;99326.78;5029638;28;20030;-51
2021/10/16 09:24:31;;;;;;;8.77;5.57;;;;;;;12.86;42.16;99313.97;5028211;28;20342;-57
2021/10/16 09:27:04;;;;;;;8.10;5.03;;;;;;;13.20;41.58;99338.34;5033517;28;20049;-57
2021/10/16 09:29:32;;;;;;;10.60;6.03;;;;;;;13.18;40.98;99313.47;5035990;28;20173;-55
2021/10/16 09:32:04;;;;;;;10.57;5.05;;;;;;;13.16;41.18;99328.91;5029692;28;20061;-54
2021/10/16 09:34:31;;;;;;;10.40;5.40;;;;;;;13.24;40.71;99314.66;5030008;28;20025;-55
2021/10/16 09:37:11;;;;;;;11.48;5.75;;;;;;;13.39;41.13;99315.00;5029724;28;20034;-64
2021/10/16 09:39:39;;;;;;;11.98;5.18;;;;;;;13.36;40.59;99309.91;5032545;28;20123;-56
2021/10/16 09:42:07;;;;;;;8.60;5.63;;;;;;;13.60;40.08;99306.63;5046167;28;20381;-59
2021/10/16 09:44:35;;;;;;;11.30;5.68;;;;;;;13.78;39.96;99316.50;5050235;28;20028;-58
2021/10/16 09:47:06;;;;;;;10.98;5.68;;;;;;;13.88;39.80;99308.34;5050448;28;20025;-60
2021/10/16 09:49:36;;;;;;;10.30;5.55;;;;;;;13.88;39.05;99306.47;5050814;28;20381;-58
2021/10/16 09:52:06;;;;;;;7.93;5.30;;;;;;;13.89;39.07;99291.19;5050226;28;20115;-58
2021/10/16 09:54:34;;;;;;;14.65;6.00;;;;;;;13.93;38.69;99301.44;5048497;28;20534;-60
2021/10/16 09:57:05;;;;;;;10.45;5.88;;;;;;;13.99;39.06;99307.22;5041749;28;20033;-57
2021/10/16 09:59:32;;;;;;;8.65;5.60;;;;;;;14.05;38.61;99291.25;5012755;28;20041;-58
2021/10/16 10:02:00;;;;;;;9.60;5.78;;;;;;;14.09;38.54;99304.41;5039602;28;20028;-59
2021/10/16 10:04:26;;;;;;;10.55;5.95;;;;;;;13.98;38.60;99306.38;5050467;28;20029;-56
2021/10/16 10:06:53;;;;;;;8.70;5.85;;;;;;;13.92;38.23;99304.31;5044897;28;20029;-55
2021/10/16 10:09:19;;;;;;;9.20;6.25;;;;;;;13.78;39.15;99286.91;5048985;28;20076;-60
2021/10/16 10:11:47;;;;;;;13.20;5.88;;;;;;;13.72;38.78;99266.00;5050060;28;20419;-59
2021/10/16 10:14:17;;;;;;;11.40;6.10;;;;;;;13.64;39.24;99278.41;5049356;28;20044;-55
2021/10/16 10:16:43;;;;;;;9.57;6.50;;;;;;;13.58;38.73;99276.34;5049183;28;20090;-53
2021/10/16 10:19:10;;;;;;;13.00;5.60;;;;;;;13.52;39.19;99273.44;5048873;28;20064;-60
2021/10/16 10:21:37;;;;;;;9.98;5.50;;;;;;;13.35;39.44;99279.50;5044924;28;20155;-56
2021/10/16 10:24:07;;;;;;;13.73;5.88;;;;;;;13.39;39.60;99287.25;5030041;28;20041;-53
2021/10/16 10:26:37;;;;;;;13.75;6.72;;;;;;;13.27;39.59;99287.50;5030797;28;20041;-57
2021/10/16 10:29:09;;;;;;;12.30;6.57;;;;;;;13.15;39.71;99277.97;5028903;28;20033;-59
2021/10/16 10:31:57;;;;;;;13.43;6.32;;;;;;;13.33;40.10;99281.50;5028458;28;20105;-58
2021/10/16 10:34:32;;;;;;;11.75;6.50;;;;;;;13.19;39.66;99293.66;5030995;28;20143;-55
2021/10/16 10:37:16;;;;;;;14.38;5.70;;;;;;;13.01;40.48;99260.53;5028750;28;20029;-58
2021/10/16 10:39:50;;;;;;;8.18;6.00;;;;;;;13.14;40.10;99293.28;5045347;28;20057;-61
2021/10/16 10:42:15;;;;;;;9.73;5.97;;;;;;;13.12;39.67;99286.34;5045628;28;20105;-58
2021/10/16 10:44:53;;;;;;;15.55;6.60;;;;;;;13.17;39.56;99292.09;5045785;28;20124;-59
2021/10/16 10:47:30;;;;;;;8.98;6.47;;;;;;;13.24;39.65;99285.09;5046017;28;20553;-59
2021/10/16 10:50:02;;;;;;;9.98;6.63;;;;;;;13.18;39.51;99288.41;5030507;28;20049;-59
2021/10/16 10:52:57;;;;;;;10.82;6.10;;;;;;;13.19;39.61;99282.03;5030336;28;20109;-60
2021/10/16 10:55:23;;;;;;;13.65;6.28;;;;;;;13.11;39.67;99301.63;5052825;28;20057;-54
2021/10/16 10:58:00;;;;;;;10.20;6.50;;;;;;;12.94;39.63;99256.78;5029240;28;20036;-61
2021/10/16 11:00:30;;;;;;;10.18;6.43;;;;;;;13.10;39.94;99321.44;5029262;28;20030;-61
2021/10/16 11:02:55;;;;;;;10.32;6.35;;;;;;;13.00;39.71;99291.94;5012736;28;20060;-63
2021/10/16 11:05:28;;;;;;;11.68;6.65;;;;;;;12.96;39.70;99300.47;5012431;28;20021;-58
2021/10/16 11:08:08;;;;;;;12.45;6.97;;;;;;;12.93;40.20;99304.28;5029490;28;20029;-58
2021/10/16 11:10:34;;;;;;;15.63;6.32;;;;;;;12.78;40.14;99299.47;5037562;28;20040;-60
2021/10/16 11:13:11;;;;;;;14.50;7.07;;;;;;;12.81;40.23;99308.22;5035708;28;20041;-62
2021/10/16 11:15:37;;;;;;;9.23;6.72;;;;;;;12.71;40.43;99305.59;5047748;28;20049;-57
2021/10/16 11:18:10;;;;;;;13.80;6.90;;;;;;;12.63;40.62;99287.53;5053110;28;20025;-60
2021/10/16 11:20:36;;;;;;;11.73;6.40;;;;;;;12.70;40.41;99314.63;5053147;28;20036;-56
2021/10/16 11:23:03;;;;;;;16.02;7.03;;;;;;;12.70;40.17;99312.78;5053076;28;20365;-57
2021/10/16 11:25:31;;;;;;;14.98;6.90;;;;;;;12.77;40.49;99319.22;5048450;28;20053;-61
2021/10/16 11:27:58;;;;;;;12.38;6.63;;;;;;;12.80;40.41;99310.03;5049225;28;20037;-63
2021/10/16 11:30:23;;;;;;;12.95;6.63;;;;;;;12.80;39.89;99285.03;5039443;28;20043;-57